sensor_id;sensor_type;location;lat;lon;timestamp;temperature;humidity
29363;DHT22;16349;53.672;10.014;2023-08-06T00:00:42;17.00;99.90
29363;DHT22;16349;53.672;10.014;2023-08-06T00:03:10;17.00;99.90
29363;DHT22;16349;53.672;10.014;2023-08-06T00:05:37;17.00;99.90
29363;DHT22;16349;53.672;10.014;2023-08-06T00:08:04;17.00;99.90
29363;DHT22;16349;53.672;10.014;2023-08-06T00:10:30;16.90;99.90
29363;DHT22;16349;53.672;10.014;2023-08-06T00:12:57;16.80;99.90
29363;DHT22;16349;53.672;10.014;2023-08-06T00:15:24;16.80;99.90
29363;DHT22;16349;53.672;10.014;2023-08-06T00:17:52;16.80;99.90
29363;DHT22;16349;53.672;10.014;2023-08-06T00:20:19;16.80;99.90
29363;DHT22;16349;53.672;10.014;2023-08-06T00:22:46;16.70;99.90
29363;DHT22;16349;53.672;10.014;2023-08-06T00:25:13;16.60;99.90
29363;DHT22;16349;53.672;10.014;2023-08-06T00:27:40;16.60;99.90
29363;DHT22;16349;53.672;10.014;2023-08-06T00:30:07;16.50;99.90
29363;DHT22;16349;53.672;10.014;2023-08-06T00:32:34;16.60;99.90
29363;DHT22;16349;53.672;10.014;2023-08-06T00:35:02;16.50;99.90
29363;DHT22;16349;53.672;10.014;2023-08-06T00:39:58;16.50;99.90
29363;DHT22;16349;53.672;10.014;2023-08-06T00:42:26;16.50;99.90
29363;DHT22;16349;53.672;10.014;2023-08-06T00:44:52;16.50;99.90
29363;DHT22;16349;53.672;10.014;2023-08-06T00:47:19;16.40;99.90
29363;DHT22;16349;53.672;10.014;2023-08-06T00:49:46;16.40;99.90
29363;DHT22;16349;53.672;10.014;2023-08-06T00:54:42;16.30;99.90
29363;DHT22;16349;53.672;10.014;2023-08-06T00:57:09;16.20;99.90
29363;DHT22;16349;53.672;10.014;2023-08-06T00:59:36;16.20;99.90
29363;DHT22;16349;53.672;10.014;2023-08-06T01:02:04;16.20;99.90
29363;DHT22;16349;53.672;10.014;2023-08-06T01:04:31;16.30;99.90
29363;DHT22;16349;53.672;10.014;2023-08-06T01:07:05;16.30;99.90
29363;DHT22;16349;53.672;10.014;2023-08-06T01:09:43;16.20;99.90
29363;DHT22;16349;53.672;10.014;2023-08-06T01:12:18;16.20;99.90
29363;DHT22;16349;53.672;10.014;2023-08-06T01:14:53;16.10;99.90
29363;DHT22;16349;53.672;10.014;2023-08-06T01:17:23;16.10;99.90
29363;DHT22;16349;53.672;10.014;2023-08-06T01:19:52;16.10;99.90
29363;DHT22;16349;53.672;10.014;2023-08-06T01:22:20;16.10;99.90
29363;DHT22;16349;53.672;10.014;2023-08-06T01:24:49;16.10;99.90
29363;DHT22;16349;53.672;10.014;2023-08-06T01:27:24;16.10;99.90
29363;DHT22;16349;53.672;10.014;2023-08-06T01:29:58;16.00;99.90
29363;DHT22;16349;53.672;10.014;2023-08-06T01:32:30;16.10;99.90
29363;DHT22;16349;53.672;10.014;2023-08-06T01:35:00;16.00;99.90
29363;DHT22;16349;53.672;10.014;2023-08-06T01:37:29;16.10;99.90
29363;DHT22;16349;53.672;10.014;2023-08-06T01:39:56;16.10;99.90
29363;DHT22;16349;53.672;10.014;2023-08-06T01:42:24;16.00;99.90
29363;DHT22;16349;53.672;10.014;2023-08-06T01:44:51;16.00;99.90
29363;DHT22;16349;53.672;10.014;2023-08-06T01:47:18;16.00;99.90
29363;DHT22;16349;53.672;10.014;2023-08-06T01:49:44;16.00;99.90
29363;DHT22;16349;53.672;10.014;2023-08-06T01:52:11;16.00;99.90
29363;DHT22;16349;53.672;10.014;2023-08-06T01:54:39;16.00;99.90
29363;DHT22;16349;53.672;10.014;2023-08-06T01:57:06;16.00;99.90
29363;DHT22;16349;53.672;10.014;2023-08-06T01:59:33;16.00;99.90
29363;DHT22;16349;53.672;10.014;2023-08-06T02:02:00;16.00;99.90
29363;DHT22;16349;53.672;10.014;2023-08-06T02:04:27;16.00;99.90
29363;DHT22;16349;53.672;10.014;2023-08-06T02:06:54;16.00;99.90
29363;DHT22;16349;53.672;10.014;2023-08-06T02:09:21;15.90;99.90
29363;DHT22;16349;53.672;10.014;2023-08-06T02:11:49;15.90;99.90
29363;DHT22;16349;53.672;10.014;2023-08-06T02:14:16;15.90;99.90
29363;DHT22;16349;53.672;10.014;2023-08-06T02:16:43;15.90;99.90
29363;DHT22;16349;53.672;10.014;2023-08-06T02:19:10;15.90;99.90
29363;DHT22;16349;53.672;10.014;2023-08-06T02:21:37;15.90;99.90
29363;DHT22;16349;53.672;10.014;2023-08-06T02:24:04;15.90;99.90
29363;DHT22;16349;53.672;10.014;2023-08-06T02:26:30;15.80;99.90
29363;DHT22;16349;53.672;10.014;2023-08-06T02:28:59;15.80;99.90
29363;DHT22;16349;53.672;10.014;2023-08-06T02:31:26;15.80;99.90
29363;DHT22;16349;53.672;10.014;2023-08-06T02:33:53;15.80;99.90
29363;DHT22;16349;53.672;10.014;2023-08-06T02:36:20;15.80;99.90
29363;DHT22;16349;53.672;10.014;2023-08-06T02:38:47;15.80;99.90
29363;DHT22;16349;53.672;10.014;2023-08-06T02:41:14;15.80;99.90
29363;DHT22;16349;53.672;10.014;2023-08-06T02:43:41;15.70;99.90
29363;DHT22;16349;53.672;10.014;2023-08-06T02:46:09;15.70;99.90
29363;DHT22;16349;53.672;10.014;2023-08-06T02:48:36;15.70;99.90
29363;DHT22;16349;53.672;10.014;2023-08-06T02:51:03;15.60;99.90
29363;DHT22;16349;53.672;10.014;2023-08-06T02:53:31;15.60;99.90
29363;DHT22;16349;53.672;10.014;2023-08-06T02:56:01;15.60;99.90
29363;DHT22;16349;53.672;10.014;2023-08-06T02:58:37;15.70;99.90
29363;DHT22;16349;53.672;10.014;2023-08-06T03:01:15;15.70;99.90
29363;DHT22;16349;53.672;10.014;2023-08-06T03:03:48;15.70;99.90
29363;DHT22;16349;53.672;10.014;2023-08-06T03:06:21;15.60;99.90
29363;DHT22;16349;53.672;10.014;2023-08-06T03:08:52;15.60;99.90
29363;DHT22;16349;53.672;10.014;2023-08-06T03:11:19;15.60;99.90
29363;DHT22;16349;53.672;10.014;2023-08-06T03:13:48;15.60;99.90
29363;DHT22;16349;53.672;10.014;2023-08-06T03:16:17;15.60;99.90
29363;DHT22;16349;53.672;10.014;2023-08-06T03:18:44;15.50;99.90
29363;DHT22;16349;53.672;10.014;2023-08-06T03:21:11;15.50;99.90
29363;DHT22;16349;53.672;10.014;2023-08-06T03:23:37;15.50;99.90
29363;DHT22;16349;53.672;10.014;2023-08-06T03:26:05;15.50;99.90
29363;DHT22;16349;53.672;10.014;2023-08-06T03:28:33;15.50;99.90
29363;DHT22;16349;53.672;10.014;2023-08-06T03:31:01;15.40;99.90
29363;DHT22;16349;53.672;10.014;2023-08-06T03:33:35;15.40;99.90
29363;DHT22;16349;53.672;10.014;2023-08-06T03:36:04;15.40;99.90
29363;DHT22;16349;53.672;10.014;2023-08-06T03:38:33;15.40;99.90
29363;DHT22;16349;53.672;10.014;2023-08-06T03:41:03;15.30;99.90
29363;DHT22;16349;53.672;10.014;2023-08-06T03:43:30;15.30;99.90
29363;DHT22;16349;53.672;10.014;2023-08-06T03:45:57;15.30;99.90
29363;DHT22;16349;53.672;10.014;2023-08-06T03:48:24;15.30;99.90
29363;DHT22;16349;53.672;10.014;2023-08-06T03:50:52;15.30;99.90
29363;DHT22;16349;53.672;10.014;2023-08-06T03:53:19;15.30;99.90
29363;DHT22;16349;53.672;10.014;2023-08-06T03:55:46;15.30;99.90
29363;DHT22;16349;53.672;10.014;2023-08-06T03:58:13;15.30;99.90
29363;DHT22;16349;53.672;10.014;2023-08-06T04:00:41;15.30;99.90
29363;DHT22;16349;53.672;10.014;2023-08-06T04:03:09;15.30;99.90
29363;DHT22;16349;53.672;10.014;2023-08-06T04:05:35;15.30;99.90
29363;DHT22;16349;53.672;10.014;2023-08-06T04:08:04;15.20;99.90
29363;DHT22;16349;53.672;10.014;2023-08-06T04:10:31;15.20;99.90
29363;DHT22;16349;53.672;10.014;2023-08-06T04:12:58;15.20;99.90
29363;DHT22;16349;53.672;10.014;2023-08-06T04:15:24;15.20;99.90
29363;DHT22;16349;53.672;10.014;2023-08-06T04:17:51;15.10;99.90
29363;DHT22;16349;53.672;10.014;2023-08-06T04:20:18;15.20;99.90
29363;DHT22;16349;53.672;10.014;2023-08-06T04:22:45;15.10;99.90
29363;DHT22;16349;53.672;10.014;2023-08-06T04:25:13;15.20;99.90
29363;DHT22;16349;53.672;10.014;2023-08-06T04:27:41;15.10;99.90
29363;DHT22;16349;53.672;10.014;2023-08-06T04:30:10;15.10;99.90
29363;DHT22;16349;53.672;10.014;2023-08-06T04:32:39;15.20;99.90
29363;DHT22;16349;53.672;10.014;2023-08-06T04:35:06;15.20;99.90
29363;DHT22;16349;53.672;10.014;2023-08-06T04:37:34;15.20;99.90
29363;DHT22;16349;53.672;10.014;2023-08-06T04:40:01;15.20;99.90
29363;DHT22;16349;53.672;10.014;2023-08-06T04:42:30;15.20;99.90
29363;DHT22;16349;53.672;10.014;2023-08-06T04:44:56;15.20;99.90
29363;DHT22;16349;53.672;10.014;2023-08-06T04:47:23;15.20;99.90
29363;DHT22;16349;53.672;10.014;2023-08-06T04:49:51;15.30;99.90
29363;DHT22;16349;53.672;10.014;2023-08-06T04:52:18;15.20;99.90
29363;DHT22;16349;53.672;10.014;2023-08-06T04:54:45;15.20;99.90
29363;DHT22;16349;53.672;10.014;2023-08-06T04:57:12;15.20;99.90
29363;DHT22;16349;53.672;10.014;2023-08-06T04:59:40;15.20;99.90
29363;DHT22;16349;53.672;10.014;2023-08-06T05:02:07;15.20;99.90
29363;DHT22;16349;53.672;10.014;2023-08-06T05:04:34;15.20;99.90
29363;DHT22;16349;53.672;10.014;2023-08-06T05:07:00;15.20;99.90
29363;DHT22;16349;53.672;10.014;2023-08-06T05:09:27;15.30;99.90
29363;DHT22;16349;53.672;10.014;2023-08-06T05:11:54;15.20;99.90
29363;DHT22;16349;53.672;10.014;2023-08-06T05:14:21;15.20;99.90
29363;DHT22;16349;53.672;10.014;2023-08-06T05:16:49;15.20;99.90
29363;DHT22;16349;53.672;10.014;2023-08-06T05:19:16;15.20;99.90
29363;DHT22;16349;53.672;10.014;2023-08-06T05:21:42;15.20;99.90
29363;DHT22;16349;53.672;10.014;2023-08-06T05:24:09;15.20;99.90
29363;DHT22;16349;53.672;10.014;2023-08-06T05:26:36;15.30;99.90
29363;DHT22;16349;53.672;10.014;2023-08-06T05:29:03;15.20;99.90
29363;DHT22;16349;53.672;10.014;2023-08-06T05:31:30;15.30;99.90
29363;DHT22;16349;53.672;10.014;2023-08-06T05:33:58;15.30;99.90
29363;DHT22;16349;53.672;10.014;2023-08-06T05:36:25;15.30;99.90
29363;DHT22;16349;53.672;10.014;2023-08-06T05:38:51;15.40;99.90
29363;DHT22;16349;53.672;10.014;2023-08-06T05:41:18;15.40;99.90
29363;DHT22;16349;53.672;10.014;2023-08-06T05:43:45;15.40;99.90
29363;DHT22;16349;53.672;10.014;2023-08-06T05:46:13;15.40;99.90
29363;DHT22;16349;53.672;10.014;2023-08-06T05:48:39;15.40;99.90
29363;DHT22;16349;53.672;10.014;2023-08-06T05:51:07;15.50;99.90
29363;DHT22;16349;53.672;10.014;2023-08-06T05:53:34;15.50;99.90
29363;DHT22;16349;53.672;10.014;2023-08-06T05:56:01;15.50;99.90
29363;DHT22;16349;53.672;10.014;2023-08-06T05:58:28;15.60;99.90
29363;DHT22;16349;53.672;10.014;2023-08-06T06:00:56;15.60;99.90
29363;DHT22;16349;53.672;10.014;2023-08-06T06:03:22;15.60;99.90
29363;DHT22;16349;53.672;10.014;2023-08-06T06:05:49;15.60;99.90
29363;DHT22;16349;53.672;10.014;2023-08-06T06:08:17;15.60;99.90
29363;DHT22;16349;53.672;10.014;2023-08-06T06:10:44;15.60;99.90
29363;DHT22;16349;53.672;10.014;2023-08-06T06:13:11;15.70;99.90
29363;DHT22;16349;53.672;10.014;2023-08-06T06:15:38;15.70;99.90
29363;DHT22;16349;53.672;10.014;2023-08-06T06:18:07;15.70;99.90
29363;DHT22;16349;53.672;10.014;2023-08-06T06:20:34;15.70;99.90
29363;DHT22;16349;53.672;10.014;2023-08-06T06:23:01;15.70;99.90
29363;DHT22;16349;53.672;10.014;2023-08-06T06:25:29;15.70;99.90
29363;DHT22;16349;53.672;10.014;2023-08-06T06:27:56;15.80;99.90
29363;DHT22;16349;53.672;10.014;2023-08-06T06:30:24;15.70;99.90
29363;DHT22;16349;53.672;10.014;2023-08-06T06:32:51;15.80;99.90
29363;DHT22;16349;53.672;10.014;2023-08-06T06:35:18;15.80;99.90
29363;DHT22;16349;53.672;10.014;2023-08-06T06:37:45;15.80;99.90
29363;DHT22;16349;53.672;10.014;2023-08-06T06:40:11;15.90;99.90
29363;DHT22;16349;53.672;10.014;2023-08-06T06:42:40;15.90;99.90
29363;DHT22;16349;53.672;10.014;2023-08-06T06:45:09;16.00;99.90
29363;DHT22;16349;53.672;10.014;2023-08-06T06:47:36;16.00;99.90
29363;DHT22;16349;53.672;10.014;2023-08-06T06:50:03;16.00;99.90
29363;DHT22;16349;53.672;10.014;2023-08-06T06:52:30;16.10;99.90
29363;DHT22;16349;53.672;10.014;2023-08-06T06:54:57;15.80;99.90
29363;DHT22;16349;53.672;10.014;2023-08-06T06:57:24;15.90;99.90
29363;DHT22;16349;53.672;10.014;2023-08-06T06:59:52;15.90;99.90
29363;DHT22;16349;53.672;10.014;2023-08-06T07:02:19;16.00;99.90
29363;DHT22;16349;53.672;10.014;2023-08-06T07:04:46;15.90;99.90
29363;DHT22;16349;53.672;10.014;2023-08-06T07:07:13;15.90;99.90
29363;DHT22;16349;53.672;10.014;2023-08-06T07:09:40;16.00;99.90
29363;DHT22;16349;53.672;10.014;2023-08-06T07:12:07;16.10;99.90
29363;DHT22;16349;53.672;10.014;2023-08-06T07:14:34;16.00;99.90
29363;DHT22;16349;53.672;10.014;2023-08-06T07:17:03;16.10;99.90
29363;DHT22;16349;53.672;10.014;2023-08-06T07:19:30;16.10;99.90
29363;DHT22;16349;53.672;10.014;2023-08-06T07:21:56;16.00;99.90
29363;DHT22;16349;53.672;10.014;2023-08-06T07:29:18;16.30;99.90
29363;DHT22;16349;53.672;10.014;2023-08-06T07:31:47;16.30;99.90
29363;DHT22;16349;53.672;10.014;2023-08-06T07:34:16;16.30;99.90
29363;DHT22;16349;53.672;10.014;2023-08-06T07:36:44;16.30;99.90
29363;DHT22;16349;53.672;10.014;2023-08-06T07:39:11;16.30;99.90
29363;DHT22;16349;53.672;10.014;2023-08-06T07:41:37;16.40;99.90
29363;DHT22;16349;53.672;10.014;2023-08-06T07:44:04;16.40;99.90
29363;DHT22;16349;53.672;10.014;2023-08-06T07:46:31;16.40;99.90
29363;DHT22;16349;53.672;10.014;2023-08-06T07:48:58;16.50;99.90
29363;DHT22;16349;53.672;10.014;2023-08-06T07:51:27;16.50;99.90
29363;DHT22;16349;53.672;10.014;2023-08-06T07:53:54;16.60;99.90
29363;DHT22;16349;53.672;10.014;2023-08-06T07:56:21;16.50;99.90
29363;DHT22;16349;53.672;10.014;2023-08-06T07:58:47;16.60;99.90
29363;DHT22;16349;53.672;10.014;2023-08-06T08:01:14;16.60;99.90
29363;DHT22;16349;53.672;10.014;2023-08-06T08:03:42;16.60;99.90
29363;DHT22;16349;53.672;10.014;2023-08-06T08:06:09;16.50;99.90
29363;DHT22;16349;53.672;10.014;2023-08-06T08:08:37;16.60;99.90
29363;DHT22;16349;53.672;10.014;2023-08-06T08:11:04;16.60;99.90
29363;DHT22;16349;53.672;10.014;2023-08-06T08:13:31;16.60;99.90
29363;DHT22;16349;53.672;10.014;2023-08-06T08:15:59;16.60;99.90
29363;DHT22;16349;53.672;10.014;2023-08-06T08:18:26;16.60;99.90
29363;DHT22;16349;53.672;10.014;2023-08-06T08:20:53;16.70;99.90
29363;DHT22;16349;53.672;10.014;2023-08-06T08:23:20;16.60;99.90
29363;DHT22;16349;53.672;10.014;2023-08-06T08:25:48;16.70;99.90
29363;DHT22;16349;53.672;10.014;2023-08-06T08:28:15;16.70;99.90
29363;DHT22;16349;53.672;10.014;2023-08-06T08:30:42;16.80;99.90
29363;DHT22;16349;53.672;10.014;2023-08-06T08:33:09;16.80;99.90
29363;DHT22;16349;53.672;10.014;2023-08-06T08:35:36;16.80;99.90
29363;DHT22;16349;53.672;10.014;2023-08-06T08:38:04;16.90;99.90
29363;DHT22;16349;53.672;10.014;2023-08-06T08:40:32;16.90;99.90
29363;DHT22;16349;53.672;10.014;2023-08-06T08:43:01;17.00;99.90
29363;DHT22;16349;53.672;10.014;2023-08-06T08:45:29;17.00;99.90
29363;DHT22;16349;53.672;10.014;2023-08-06T08:47:56;17.10;99.90
29363;DHT22;16349;53.672;10.014;2023-08-06T08:50:23;17.00;99.90
29363;DHT22;16349;53.672;10.014;2023-08-06T08:52:50;17.00;99.90
29363;DHT22;16349;53.672;10.014;2023-08-06T08:55:18;17.10;99.90
29363;DHT22;16349;53.672;10.014;2023-08-06T08:57:46;17.00;99.90
29363;DHT22;16349;53.672;10.014;2023-08-06T09:00:15;17.10;99.90
29363;DHT22;16349;53.672;10.014;2023-08-06T09:02:44;17.10;99.90
29363;DHT22;16349;53.672;10.014;2023-08-06T09:05:13;17.10;99.90
29363;DHT22;16349;53.672;10.014;2023-08-06T09:07:42;17.10;99.90
29363;DHT22;16349;53.672;10.014;2023-08-06T09:10:11;17.10;99.90
29363;DHT22;16349;53.672;10.014;2023-08-06T09:12:39;17.10;99.90
29363;DHT22;16349;53.672;10.014;2023-08-06T09:15:07;17.10;99.90
29363;DHT22;16349;53.672;10.014;2023-08-06T09:17:36;17.10;99.90
29363;DHT22;16349;53.672;10.014;2023-08-06T09:20:10;17.20;99.90
29363;DHT22;16349;53.672;10.014;2023-08-06T09:22:37;17.20;99.90
29363;DHT22;16349;53.672;10.014;2023-08-06T09:25:06;17.20;99.90
29363;DHT22;16349;53.672;10.014;2023-08-06T09:27:36;17.20;99.90
29363;DHT22;16349;53.672;10.014;2023-08-06T09:30:04;17.20;99.90
29363;DHT22;16349;53.672;10.014;2023-08-06T09:32:46;17.20;99.90
29363;DHT22;16349;53.672;10.014;2023-08-06T09:35:18;17.20;99.90
29363;DHT22;16349;53.672;10.014;2023-08-06T09:37:45;17.20;99.90
29363;DHT22;16349;53.672;10.014;2023-08-06T09:40:25;17.20;99.90
29363;DHT22;16349;53.672;10.014;2023-08-06T09:42:52;17.10;99.90
29363;DHT22;16349;53.672;10.014;2023-08-06T09:45:19;17.10;99.90
29363;DHT22;16349;53.672;10.014;2023-08-06T09:47:49;17.10;99.90
29363;DHT22;16349;53.672;10.014;2023-08-06T09:50:17;17.10;99.90
29363;DHT22;16349;53.672;10.014;2023-08-06T09:52:44;17.10;99.90
29363;DHT22;16349;53.672;10.014;2023-08-06T09:55:12;17.10;99.90
29363;DHT22;16349;53.672;10.014;2023-08-06T09:57:40;17.10;99.90
29363;DHT22;16349;53.672;10.014;2023-08-06T10:00:08;17.10;99.90
29363;DHT22;16349;53.672;10.014;2023-08-06T10:02:39;17.10;99.90
29363;DHT22;16349;53.672;10.014;2023-08-06T10:05:08;17.10;99.90
29363;DHT22;16349;53.672;10.014;2023-08-06T10:07:35;17.10;99.90
29363;DHT22;16349;53.672;10.014;2023-08-06T10:10:05;17.10;99.90
29363;DHT22;16349;53.672;10.014;2023-08-06T10:12:34;17.10;99.90
29363;DHT22;16349;53.672;10.014;2023-08-06T10:15:05;17.10;99.90
29363;DHT22;16349;53.672;10.014;2023-08-06T10:17:34;17.10;99.90
29363;DHT22;16349;53.672;10.014;2023-08-06T10:20:03;17.10;99.90
29363;DHT22;16349;53.672;10.014;2023-08-06T10:22:33;17.10;99.90
29363;DHT22;16349;53.672;10.014;2023-08-06T10:25:01;17.00;99.90
29363;DHT22;16349;53.672;10.014;2023-08-06T10:27:32;17.00;99.90
29363;DHT22;16349;53.672;10.014;2023-08-06T10:30:21;17.00;99.90
29363;DHT22;16349;53.672;10.014;2023-08-06T10:32:48;16.90;99.90
29363;DHT22;16349;53.672;10.014;2023-08-06T10:35:28;16.90;99.90
29363;DHT22;16349;53.672;10.014;2023-08-06T10:37:59;16.90;99.90
29363;DHT22;16349;53.672;10.014;2023-08-06T10:40:29;16.90;99.90
29363;DHT22;16349;53.672;10.014;2023-08-06T10:42:58;16.90;99.90
29363;DHT22;16349;53.672;10.014;2023-08-06T10:45:25;16.90;99.90
29363;DHT22;16349;53.672;10.014;2023-08-06T10:47:55;16.90;99.90
29363;DHT22;16349;53.672;10.014;2023-08-06T10:50:23;16.90;99.90
29363;DHT22;16349;53.672;10.014;2023-08-06T10:52:50;17.00;99.90
29363;DHT22;16349;53.672;10.014;2023-08-06T10:55:25;17.00;99.90
29363;DHT22;16349;53.672;10.014;2023-08-06T10:57:53;17.00;99.90
29363;DHT22;16349;53.672;10.014;2023-08-06T11:00:21;17.00;99.90
29363;DHT22;16349;53.672;10.014;2023-08-06T11:02:48;17.00;99.90
29363;DHT22;16349;53.672;10.014;2023-08-06T11:05:16;17.10;99.90
29363;DHT22;16349;53.672;10.014;2023-08-06T11:07:43;17.10;99.90
29363;DHT22;16349;53.672;10.014;2023-08-06T11:10:11;17.20;99.90
29363;DHT22;16349;53.672;10.014;2023-08-06T11:12:40;17.10;99.90
29363;DHT22;16349;53.672;10.014;2023-08-06T11:15:07;17.10;99.90
29363;DHT22;16349;53.672;10.014;2023-08-06T11:17:34;17.10;99.90
29363;DHT22;16349;53.672;10.014;2023-08-06T11:20:03;17.10;99.90
29363;DHT22;16349;53.672;10.014;2023-08-06T11:22:30;17.10;99.90
29363;DHT22;16349;53.672;10.014;2023-08-06T11:24:57;17.10;99.90
29363;DHT22;16349;53.672;10.014;2023-08-06T11:27:27;17.00;99.90
29363;DHT22;16349;53.672;10.014;2023-08-06T11:29:56;17.10;99.90
29363;DHT22;16349;53.672;10.014;2023-08-06T11:32:23;17.10;99.90
29363;DHT22;16349;53.672;10.014;2023-08-06T11:34:50;17.10;99.90
29363;DHT22;16349;53.672;10.014;2023-08-06T11:37:20;17.10;99.90
29363;DHT22;16349;53.672;10.014;2023-08-06T11:39:48;17.20;99.90
29363;DHT22;16349;53.672;10.014;2023-08-06T11:42:15;17.20;99.90
29363;DHT22;16349;53.672;10.014;2023-08-06T11:44:42;17.20;99.90
29363;DHT22;16349;53.672;10.014;2023-08-06T11:47:14;17.20;99.90
29363;DHT22;16349;53.672;10.014;2023-08-06T11:49:44;17.30;99.90
29363;DHT22;16349;53.672;10.014;2023-08-06T11:52:13;17.40;99.90
29363;DHT22;16349;53.672;10.014;2023-08-06T11:54:41;17.30;99.90
29363;DHT22;16349;53.672;10.014;2023-08-06T11:57:07;17.40;99.90
29363;DHT22;16349;53.672;10.014;2023-08-06T11:59:34;17.40;99.90
29363;DHT22;16349;53.672;10.014;2023-08-06T12:02:02;17.40;99.90
29363;DHT22;16349;53.672;10.014;2023-08-06T12:07:15;17.50;99.90
29363;DHT22;16349;53.672;10.014;2023-08-06T12:09:42;17.60;99.90
29363;DHT22;16349;53.672;10.014;2023-08-06T12:12:09;17.70;99.90
29363;DHT22;16349;53.672;10.014;2023-08-06T12:14:36;17.70;99.90
29363;DHT22;16349;53.672;10.014;2023-08-06T12:17:03;17.80;99.90
29363;DHT22;16349;53.672;10.014;2023-08-06T12:19:31;17.70;99.90
29363;DHT22;16349;53.672;10.014;2023-08-06T12:21:58;17.70;99.90
29363;DHT22;16349;53.672;10.014;2023-08-06T12:24:25;17.70;99.90
29363;DHT22;16349;53.672;10.014;2023-08-06T12:26:52;17.80;99.90
29363;DHT22;16349;53.672;10.014;2023-08-06T12:29:19;17.80;99.90
29363;DHT22;16349;53.672;10.014;2023-08-06T12:31:46;17.80;99.90
29363;DHT22;16349;53.672;10.014;2023-08-06T12:34:12;17.90;99.90
29363;DHT22;16349;53.672;10.014;2023-08-06T12:36:41;17.90;99.90
29363;DHT22;16349;53.672;10.014;2023-08-06T12:39:07;17.80;99.90
29363;DHT22;16349;53.672;10.014;2023-08-06T12:41:34;17.90;99.90
29363;DHT22;16349;53.672;10.014;2023-08-06T12:44:01;17.90;99.90
29363;DHT22;16349;53.672;10.014;2023-08-06T12:46:28;17.90;99.90
29363;DHT22;16349;53.672;10.014;2023-08-06T12:48:55;18.00;99.90
29363;DHT22;16349;53.672;10.014;2023-08-06T12:51:23;18.10;99.90
29363;DHT22;16349;53.672;10.014;2023-08-06T12:53:51;18.10;99.90
29363;DHT22;16349;53.672;10.014;2023-08-06T12:56:18;18.20;99.90
29363;DHT22;16349;53.672;10.014;2023-08-06T12:58:44;18.30;99.90
29363;DHT22;16349;53.672;10.014;2023-08-06T13:01:11;18.30;99.90
29363;DHT22;16349;53.672;10.014;2023-08-06T13:03:38;18.40;99.90
29363;DHT22;16349;53.672;10.014;2023-08-06T13:06:05;18.30;99.90
29363;DHT22;16349;53.672;10.014;2023-08-06T13:08:33;18.40;99.90
29363;DHT22;16349;53.672;10.014;2023-08-06T13:11:01;18.50;99.90
29363;DHT22;16349;53.672;10.014;2023-08-06T13:13:28;18.50;99.90
29363;DHT22;16349;53.672;10.014;2023-08-06T13:15:55;18.60;99.90
29363;DHT22;16349;53.672;10.014;2023-08-06T13:18:22;18.70;99.90
29363;DHT22;16349;53.672;10.014;2023-08-06T13:20:48;18.70;99.90
29363;DHT22;16349;53.672;10.014;2023-08-06T13:23:18;18.70;99.90
29363;DHT22;16349;53.672;10.014;2023-08-06T13:25:44;18.80;99.90
29363;DHT22;16349;53.672;10.014;2023-08-06T13:28:13;19.00;99.90
29363;DHT22;16349;53.672;10.014;2023-08-06T13:30:40;19.20;99.90
29363;DHT22;16349;53.672;10.014;2023-08-06T13:33:08;19.40;99.90
29363;DHT22;16349;53.672;10.014;2023-08-06T13:35:35;19.40;99.90
29363;DHT22;16349;53.672;10.014;2023-08-06T13:38:02;19.40;99.90
29363;DHT22;16349;53.672;10.014;2023-08-06T13:40:31;19.30;99.90
29363;DHT22;16349;53.672;10.014;2023-08-06T13:42:58;19.30;99.90
29363;DHT22;16349;53.672;10.014;2023-08-06T13:45:27;19.30;99.90
29363;DHT22;16349;53.672;10.014;2023-08-06T13:47:55;19.20;99.90
29363;DHT22;16349;53.672;10.014;2023-08-06T13:50:22;19.20;99.90
29363;DHT22;16349;53.672;10.014;2023-08-06T13:52:51;19.20;99.90
29363;DHT22;16349;53.672;10.014;2023-08-06T13:55:21;19.20;99.90
29363;DHT22;16349;53.672;10.014;2023-08-06T13:57:48;19.10;99.90
29363;DHT22;16349;53.672;10.014;2023-08-06T14:00:15;19.00;99.90
29363;DHT22;16349;53.672;10.014;2023-08-06T14:02:43;18.80;99.90
29363;DHT22;16349;53.672;10.014;2023-08-06T14:05:10;18.60;99.90
29363;DHT22;16349;53.672;10.014;2023-08-06T14:07:37;18.50;99.90
29363;DHT22;16349;53.672;10.014;2023-08-06T14:10:05;18.40;99.90
29363;DHT22;16349;53.672;10.014;2023-08-06T14:12:32;18.40;99.90
29363;DHT22;16349;53.672;10.014;2023-08-06T14:14:59;18.30;99.90
29363;DHT22;16349;53.672;10.014;2023-08-06T14:17:26;18.20;99.90
29363;DHT22;16349;53.672;10.014;2023-08-06T14:19:54;18.10;99.90
29363;DHT22;16349;53.672;10.014;2023-08-06T14:22:21;18.10;99.90
29363;DHT22;16349;53.672;10.014;2023-08-06T14:24:48;18.00;99.90
29363;DHT22;16349;53.672;10.014;2023-08-06T14:27:15;18.00;99.90
29363;DHT22;16349;53.672;10.014;2023-08-06T14:29:42;17.90;99.90
29363;DHT22;16349;53.672;10.014;2023-08-06T14:32:09;17.90;99.90
29363;DHT22;16349;53.672;10.014;2023-08-06T14:34:36;17.90;99.90
29363;DHT22;16349;53.672;10.014;2023-08-06T14:37:05;17.90;99.90
29363;DHT22;16349;53.672;10.014;2023-08-06T14:39:32;17.90;99.90
29363;DHT22;16349;53.672;10.014;2023-08-06T14:41:59;17.80;99.90
29363;DHT22;16349;53.672;10.014;2023-08-06T14:44:26;17.80;99.90
29363;DHT22;16349;53.672;10.014;2023-08-06T14:46:53;17.80;99.90
29363;DHT22;16349;53.672;10.014;2023-08-06T14:49:20;17.80;99.90
29363;DHT22;16349;53.672;10.014;2023-08-06T14:51:46;17.80;99.90
29363;DHT22;16349;53.672;10.014;2023-08-06T14:54:15;17.80;99.90
29363;DHT22;16349;53.672;10.014;2023-08-06T14:56:41;17.80;99.90
29363;DHT22;16349;53.672;10.014;2023-08-06T14:59:08;17.80;99.90
29363;DHT22;16349;53.672;10.014;2023-08-06T15:01:35;17.80;99.90
29363;DHT22;16349;53.672;10.014;2023-08-06T15:04:03;17.70;99.90
29363;DHT22;16349;53.672;10.014;2023-08-06T15:06:30;17.70;99.90
29363;DHT22;16349;53.672;10.014;2023-08-06T15:08:56;17.80;99.90
29363;DHT22;16349;53.672;10.014;2023-08-06T15:11:28;17.90;99.90
29363;DHT22;16349;53.672;10.014;2023-08-06T15:13:54;17.90;99.90
29363;DHT22;16349;53.672;10.014;2023-08-06T15:16:21;17.90;99.90
29363;DHT22;16349;53.672;10.014;2023-08-06T15:18:48;17.90;99.90
29363;DHT22;16349;53.672;10.014;2023-08-06T15:21:15;17.90;99.90
29363;DHT22;16349;53.672;10.014;2023-08-06T15:23:43;17.90;99.90
29363;DHT22;16349;53.672;10.014;2023-08-06T15:26:10;17.90;99.90
29363;DHT22;16349;53.672;10.014;2023-08-06T15:28:38;17.90;99.90
29363;DHT22;16349;53.672;10.014;2023-08-06T15:31:05;17.90;99.90